sensor_id;sensor_type;location;lat;lon;timestamp;temperature;humidity
45008;DHT22;30743;52.008;5.644;2024-01-11T00:01:17;7.00;80.70
45008;DHT22;30743;52.008;5.644;2024-01-11T00:03:43;7.10;80.90
45008;DHT22;30743;52.008;5.644;2024-01-11T00:06:09;7.00;80.60
45008;DHT22;30743;52.008;5.644;2024-01-11T00:08:34;7.00;80.70
45008;DHT22;30743;52.008;5.644;2024-01-11T00:11:00;7.00;80.80
45008;DHT22;30743;52.008;5.644;2024-01-11T00:13:25;7.00;80.90
45008;DHT22;30743;52.008;5.644;2024-01-11T00:15:52;7.00;80.90
45008;DHT22;30743;52.008;5.644;2024-01-11T00:18:17;7.00;80.80
45008;DHT22;30743;52.008;5.644;2024-01-11T00:20:43;6.90;80.80
45008;DHT22;30743;52.008;5.644;2024-01-11T00:23:08;7.00;81.00
45008;DHT22;30743;52.008;5.644;2024-01-11T00:25:34;6.90;81.10
45008;DHT22;30743;52.008;5.644;2024-01-11T00:28:00;6.90;81.20
45008;DHT22;30743;52.008;5.644;2024-01-11T00:30:27;6.90;81.30
45008;DHT22;30743;52.008;5.644;2024-01-11T00:32:52;6.80;81.40
45008;DHT22;30743;52.008;5.644;2024-01-11T00:35:18;6.80;81.50
45008;DHT22;30743;52.008;5.644;2024-01-11T00:37:44;6.80;81.50
45008;DHT22;30743;52.008;5.644;2024-01-11T00:40:10;6.70;81.60
45008;DHT22;30743;52.008;5.644;2024-01-11T00:42:36;6.70;81.80
45008;DHT22;30743;52.008;5.644;2024-01-11T00:45:02;6.70;81.90
45008;DHT22;30743;52.008;5.644;2024-01-11T00:47:27;6.70;82.10
45008;DHT22;30743;52.008;5.644;2024-01-11T00:49:53;6.60;82.20
45008;DHT22;30743;52.008;5.644;2024-01-11T00:52:19;6.60;82.50
45008;DHT22;30743;52.008;5.644;2024-01-11T00:54:44;6.60;82.70
45008;DHT22;30743;52.008;5.644;2024-01-11T00:57:10;6.50;82.80
45008;DHT22;30743;52.008;5.644;2024-01-11T00:59:36;6.60;82.60
45008;DHT22;30743;52.008;5.644;2024-01-11T01:02:01;6.50;82.60
45008;DHT22;30743;52.008;5.644;2024-01-11T01:04:27;6.40;82.20
45008;DHT22;30743;52.008;5.644;2024-01-11T01:06:52;6.40;82.80
45008;DHT22;30743;52.008;5.644;2024-01-11T01:09:18;6.40;83.00
45008;DHT22;30743;52.008;5.644;2024-01-11T01:11:44;6.40;83.10
45008;DHT22;30743;52.008;5.644;2024-01-11T01:14:09;6.40;83.30
45008;DHT22;30743;52.008;5.644;2024-01-11T01:16:35;6.40;83.30
45008;DHT22;30743;52.008;5.644;2024-01-11T01:19:00;6.40;83.30
45008;DHT22;30743;52.008;5.644;2024-01-11T01:21:26;6.30;84.20
45008;DHT22;30743;52.008;5.644;2024-01-11T01:23:52;6.30;83.60
45008;DHT22;30743;52.008;5.644;2024-01-11T01:26:17;6.30;83.80
45008;DHT22;30743;52.008;5.644;2024-01-11T01:28:43;6.30;83.90
45008;DHT22;30743;52.008;5.644;2024-01-11T01:31:09;6.30;83.90
45008;DHT22;30743;52.008;5.644;2024-01-11T01:33:35;6.30;83.80
45008;DHT22;30743;52.008;5.644;2024-01-11T01:36:00;6.30;83.90
45008;DHT22;30743;52.008;5.644;2024-01-11T01:38:26;6.20;83.90
45008;DHT22;30743;52.008;5.644;2024-01-11T01:40:52;6.20;84.20
45008;DHT22;30743;52.008;5.644;2024-01-11T01:43:17;6.70;84.60
45008;DHT22;30743;52.008;5.644;2024-01-11T01:45:43;6.20;84.40
45008;DHT22;30743;52.008;5.644;2024-01-11T01:48:08;6.10;84.40
45008;DHT22;30743;52.008;5.644;2024-01-11T01:50:34;6.10;84.40
45008;DHT22;30743;52.008;5.644;2024-01-11T01:53:00;6.10;84.40
45008;DHT22;30743;52.008;5.644;2024-01-11T01:55:27;6.00;84.40
45008;DHT22;30743;52.008;5.644;2024-01-11T01:57:53;6.00;84.50
45008;DHT22;30743;52.008;5.644;2024-01-11T02:00:19;6.00;84.60
45008;DHT22;30743;52.008;5.644;2024-01-11T02:02:46;6.00;84.80
45008;DHT22;30743;52.008;5.644;2024-01-11T02:05:16;6.00;84.80
45008;DHT22;30743;52.008;5.644;2024-01-11T02:07:41;6.00;85.00
45008;DHT22;30743;52.008;5.644;2024-01-11T02:10:08;5.90;85.00
45008;DHT22;30743;52.008;5.644;2024-01-11T02:12:36;5.90;85.10
45008;DHT22;30743;52.008;5.644;2024-01-11T02:15:03;5.90;85.20
45008;DHT22;30743;52.008;5.644;2024-01-11T02:19:55;5.90;84.90
45008;DHT22;30743;52.008;5.644;2024-01-11T02:22:24;5.80;85.70
45008;DHT22;30743;52.008;5.644;2024-01-11T02:24:50;5.80;86.00
45008;DHT22;30743;52.008;5.644;2024-01-11T02:27:15;5.80;86.10
45008;DHT22;30743;52.008;5.644;2024-01-11T02:29:41;5.80;86.30
45008;DHT22;30743;52.008;5.644;2024-01-11T02:32:07;5.80;86.30
45008;DHT22;30743;52.008;5.644;2024-01-11T02:34:33;5.80;86.40
45008;DHT22;30743;52.008;5.644;2024-01-11T02:36:59;5.80;87.30
45008;DHT22;30743;52.008;5.644;2024-01-11T02:39:26;5.70;86.70
45008;DHT22;30743;52.008;5.644;2024-01-11T02:41:56;5.70;86.80
45008;DHT22;30743;52.008;5.644;2024-01-11T02:44:23;5.80;87.00
45008;DHT22;30743;52.008;5.644;2024-01-11T02:46:49;5.80;86.90
45008;DHT22;30743;52.008;5.644;2024-01-11T02:49:15;5.70;86.80
45008;DHT22;30743;52.008;5.644;2024-01-11T02:51:40;5.80;87.00
45008;DHT22;30743;52.008;5.644;2024-01-11T02:54:06;5.70;86.90
45008;DHT22;30743;52.008;5.644;2024-01-11T02:56:31;5.70;87.00
45008;DHT22;30743;52.008;5.644;2024-01-11T02:58:57;5.70;87.20
45008;DHT22;30743;52.008;5.644;2024-01-11T03:01:23;5.70;87.30
45008;DHT22;30743;52.008;5.644;2024-01-11T03:03:48;6.80;88.00
45008;DHT22;30743;52.008;5.644;2024-01-11T03:06:14;5.60;87.40
45008;DHT22;30743;52.008;5.644;2024-01-11T03:08:39;5.60;87.50
45008;DHT22;30743;52.008;5.644;2024-01-11T03:11:05;5.60;87.70
45008;DHT22;30743;52.008;5.644;2024-01-11T03:13:31;5.50;87.80
45008;DHT22;30743;52.008;5.644;2024-01-11T03:15:57;5.50;87.70
45008;DHT22;30743;52.008;5.644;2024-01-11T03:18:22;5.50;87.80
45008;DHT22;30743;52.008;5.644;2024-01-11T03:20:48;5.50;87.80
45008;DHT22;30743;52.008;5.644;2024-01-11T03:23:13;5.40;87.70
45008;DHT22;30743;52.008;5.644;2024-01-11T03:25:39;5.40;87.90
45008;DHT22;30743;52.008;5.644;2024-01-11T03:28:05;5.40;88.00
45008;DHT22;30743;52.008;5.644;2024-01-11T03:30:30;5.40;88.20
45008;DHT22;30743;52.008;5.644;2024-01-11T03:32:56;6.10;88.80
45008;DHT22;30743;52.008;5.644;2024-01-11T03:35:21;5.30;88.50
45008;DHT22;30743;52.008;5.644;2024-01-11T03:37:47;5.30;88.60
45008;DHT22;30743;52.008;5.644;2024-01-11T03:40:13;5.90;89.20
45008;DHT22;30743;52.008;5.644;2024-01-11T03:42:39;5.30;89.20
45008;DHT22;30743;52.008;5.644;2024-01-11T03:45:07;5.20;89.00
45008;DHT22;30743;52.008;5.644;2024-01-11T03:47:32;5.20;89.00
45008;DHT22;30743;52.008;5.644;2024-01-11T03:49:58;5.20;89.10
45008;DHT22;30743;52.008;5.644;2024-01-11T03:52:23;5.20;89.10
45008;DHT22;30743;52.008;5.644;2024-01-11T03:54:49;5.20;89.10
45008;DHT22;30743;52.008;5.644;2024-01-11T03:57:15;5.20;89.20
45008;DHT22;30743;52.008;5.644;2024-01-11T03:59:41;7.20;90.20
45008;DHT22;30743;52.008;5.644;2024-01-11T04:02:07;5.20;89.30
45008;DHT22;30743;52.008;5.644;2024-01-11T04:04:33;5.10;89.30
45008;DHT22;30743;52.008;5.644;2024-01-11T04:06:59;5.10;89.50
45008;DHT22;30743;52.008;5.644;2024-01-11T04:09:24;5.10;89.70
45008;DHT22;30743;52.008;5.644;2024-01-11T04:11:50;5.10;89.70
45008;DHT22;30743;52.008;5.644;2024-01-11T04:14:15;5.10;90.00
45008;DHT22;30743;52.008;5.644;2024-01-11T04:16:42;5.00;90.00
45008;DHT22;30743;52.008;5.644;2024-01-11T04:19:08;5.10;90.00
45008;DHT22;30743;52.008;5.644;2024-01-11T04:21:33;5.10;90.00
45008;DHT22;30743;52.008;5.644;2024-01-11T04:23:59;5.00;90.00
45008;DHT22;30743;52.008;5.644;2024-01-11T04:26:25;5.00;90.10
45008;DHT22;30743;52.008;5.644;2024-01-11T04:28:52;5.00;90.10
45008;DHT22;30743;52.008;5.644;2024-01-11T04:31:18;5.00;90.20
45008;DHT22;30743;52.008;5.644;2024-01-11T04:33:45;5.00;90.20
45008;DHT22;30743;52.008;5.644;2024-01-11T04:36:11;5.00;90.30
45008;DHT22;30743;52.008;5.644;2024-01-11T04:38:37;4.80;90.30
45008;DHT22;30743;52.008;5.644;2024-01-11T04:41:10;5.00;90.30
45008;DHT22;30743;52.008;5.644;2024-01-11T04:43:41;5.00;90.30
45008;DHT22;30743;52.008;5.644;2024-01-11T04:46:22;5.00;90.40
45008;DHT22;30743;52.008;5.644;2024-01-11T04:48:49;5.00;90.50
45008;DHT22;30743;52.008;5.644;2024-01-11T04:51:16;4.90;90.60
45008;DHT22;30743;52.008;5.644;2024-01-11T04:53:43;5.00;90.70
45008;DHT22;30743;52.008;5.644;2024-01-11T04:56:11;4.90;90.70
45008;DHT22;30743;52.008;5.644;2024-01-11T04:58:39;4.90;90.70
45008;DHT22;30743;52.008;5.644;2024-01-11T05:01:06;4.90;90.80
45008;DHT22;30743;52.008;5.644;2024-01-11T05:03:31;4.90;90.80
45008;DHT22;30743;52.008;5.644;2024-01-11T05:06:00;4.90;90.80
45008;DHT22;30743;52.008;5.644;2024-01-11T05:08:26;4.90;90.90
45008;DHT22;30743;52.008;5.644;2024-01-11T05:10:53;4.90;91.00
45008;DHT22;30743;52.008;5.644;2024-01-11T05:13:19;4.90;91.00
45008;DHT22;30743;52.008;5.644;2024-01-11T05:15:45;4.80;91.10
45008;DHT22;30743;52.008;5.644;2024-01-11T05:18:11;4.90;91.20
45008;DHT22;30743;52.008;5.644;2024-01-11T05:20:37;4.80;91.20
45008;DHT22;30743;52.008;5.644;2024-01-11T05:23:03;4.90;91.30
45008;DHT22;30743;52.008;5.644;2024-01-11T05:25:29;4.80;91.30
45008;DHT22;30743;52.008;5.644;2024-01-11T05:28:02;4.80;91.30
45008;DHT22;30743;52.008;5.644;2024-01-11T05:30:28;4.80;91.30
45008;DHT22;30743;52.008;5.644;2024-01-11T05:32:54;4.80;91.40
45008;DHT22;30743;52.008;5.644;2024-01-11T05:35:21;4.80;91.40
45008;DHT22;30743;52.008;5.644;2024-01-11T05:37:47;4.80;91.40
45008;DHT22;30743;52.008;5.644;2024-01-11T05:40:12;4.70;91.40
45008;DHT22;30743;52.008;5.644;2024-01-11T05:42:39;4.70;91.40
45008;DHT22;30743;52.008;5.644;2024-01-11T05:45:05;4.70;91.40
45008;DHT22;30743;52.008;5.644;2024-01-11T05:47:31;4.70;91.50
45008;DHT22;30743;52.008;5.644;2024-01-11T05:49:56;4.70;91.50
45008;DHT22;30743;52.008;5.644;2024-01-11T05:52:22;4.70;91.50
45008;DHT22;30743;52.008;5.644;2024-01-11T05:54:47;4.70;91.50
45008;DHT22;30743;52.008;5.644;2024-01-11T05:57:13;4.70;91.50
45008;DHT22;30743;52.008;5.644;2024-01-11T05:59:44;4.60;91.50
45008;DHT22;30743;52.008;5.644;2024-01-11T06:02:10;4.60;91.60
45008;DHT22;30743;52.008;5.644;2024-01-11T06:04:36;4.60;91.70
45008;DHT22;30743;52.008;5.644;2024-01-11T06:07:02;4.60;91.70
45008;DHT22;30743;52.008;5.644;2024-01-11T06:09:27;4.50;91.60
45008;DHT22;30743;52.008;5.644;2024-01-11T06:11:53;4.50;91.60
45008;DHT22;30743;52.008;5.644;2024-01-11T06:14:18;4.50;91.70
45008;DHT22;30743;52.008;5.644;2024-01-11T06:16:44;4.50;91.80
45008;DHT22;30743;52.008;5.644;2024-01-11T06:19:10;4.50;91.90
45008;DHT22;30743;52.008;5.644;2024-01-11T06:21:35;4.50;91.90
45008;DHT22;30743;52.008;5.644;2024-01-11T06:24:01;4.40;92.30
45008;DHT22;30743;52.008;5.644;2024-01-11T06:26:28;4.40;92.10
45008;DHT22;30743;52.008;5.644;2024-01-11T06:28:54;4.50;92.00
45008;DHT22;30743;52.008;5.644;2024-01-11T06:31:19;4.40;92.00
45008;DHT22;30743;52.008;5.644;2024-01-11T06:33:45;4.50;92.00
45008;DHT22;30743;52.008;5.644;2024-01-11T06:36:11;4.40;91.90
45008;DHT22;30743;52.008;5.644;2024-01-11T06:38:36;4.50;92.00
45008;DHT22;30743;52.008;5.644;2024-01-11T06:41:02;4.40;92.00
45008;DHT22;30743;52.008;5.644;2024-01-11T06:43:27;4.50;92.00
45008;DHT22;30743;52.008;5.644;2024-01-11T06:45:53;4.50;92.00
45008;DHT22;30743;52.008;5.644;2024-01-11T06:48:19;4.50;92.00
45008;DHT22;30743;52.008;5.644;2024-01-11T06:50:44;4.50;92.00
45008;DHT22;30743;52.008;5.644;2024-01-11T06:53:10;4.50;92.10
45008;DHT22;30743;52.008;5.644;2024-01-11T06:55:36;4.50;92.00
45008;DHT22;30743;52.008;5.644;2024-01-11T06:58:01;4.50;92.00
45008;DHT22;30743;52.008;5.644;2024-01-11T07:00:27;4.50;92.00
45008;DHT22;30743;52.008;5.644;2024-01-11T07:02:53;4.50;92.00
45008;DHT22;30743;52.008;5.644;2024-01-11T07:05:19;4.50;92.00
45008;DHT22;30743;52.008;5.644;2024-01-11T07:07:44;4.50;92.00
45008;DHT22;30743;52.008;5.644;2024-01-11T07:10:10;4.60;92.10
45008;DHT22;30743;52.008;5.644;2024-01-11T07:12:36;4.60;92.00
45008;DHT22;30743;52.008;5.644;2024-01-11T07:15:03;4.60;92.00
45008;DHT22;30743;52.008;5.644;2024-01-11T07:17:30;4.60;92.00
45008;DHT22;30743;52.008;5.644;2024-01-11T07:19:55;4.60;92.00
45008;DHT22;30743;52.008;5.644;2024-01-11T07:22:21;4.60;92.00
45008;DHT22;30743;52.008;5.644;2024-01-11T07:24:47;4.50;92.00
45008;DHT22;30743;52.008;5.644;2024-01-11T07:27:12;4.60;92.10
45008;DHT22;30743;52.008;5.644;2024-01-11T07:29:38;4.60;92.10
45008;DHT22;30743;52.008;5.644;2024-01-11T07:32:04;4.60;92.50
45008;DHT22;30743;52.008;5.644;2024-01-11T07:34:30;4.60;92.20
45008;DHT22;30743;52.008;5.644;2024-01-11T07:36:55;4.60;92.30
45008;DHT22;30743;52.008;5.644;2024-01-11T07:39:22;4.50;92.30
45008;DHT22;30743;52.008;5.644;2024-01-11T07:41:48;4.50;92.30
45008;DHT22;30743;52.008;5.644;2024-01-11T07:44:14;4.50;92.40
45008;DHT22;30743;52.008;5.644;2024-01-11T07:46:39;4.50;92.50
45008;DHT22;30743;52.008;5.644;2024-01-11T07:49:06;4.50;92.40
45008;DHT22;30743;52.008;5.644;2024-01-11T07:51:32;4.60;92.40
45008;DHT22;30743;52.008;5.644;2024-01-11T07:53:58;4.50;92.20
45008;DHT22;30743;52.008;5.644;2024-01-11T07:56:24;4.50;92.30
45008;DHT22;30743;52.008;5.644;2024-01-11T07:58:49;4.60;92.40
45008;DHT22;30743;52.008;5.644;2024-01-11T08:01:15;4.50;92.40
45008;DHT22;30743;52.008;5.644;2024-01-11T08:03:41;4.50;92.60
45008;DHT22;30743;52.008;5.644;2024-01-11T08:06:10;4.50;92.60
45008;DHT22;30743;52.008;5.644;2024-01-11T08:08:35;4.60;92.80
45008;DHT22;30743;52.008;5.644;2024-01-11T08:11:01;4.60;92.70
45008;DHT22;30743;52.008;5.644;2024-01-11T08:13:28;4.60;92.70
45008;DHT22;30743;52.008;5.644;2024-01-11T08:15:56;4.60;92.80
45008;DHT22;30743;52.008;5.644;2024-01-11T08:18:22;4.70;92.80
45008;DHT22;30743;52.008;5.644;2024-01-11T08:20:49;4.80;92.90
45008;DHT22;30743;52.008;5.644;2024-01-11T08:23:14;4.80;92.90
45008;DHT22;30743;52.008;5.644;2024-01-11T08:25:40;4.80;93.10
45008;DHT22;30743;52.008;5.644;2024-01-11T08:28:06;4.90;93.00
45008;DHT22;30743;52.008;5.644;2024-01-11T08:30:32;5.00;93.10
45008;DHT22;30743;52.008;5.644;2024-01-11T08:32:58;5.00;93.00
45008;DHT22;30743;52.008;5.644;2024-01-11T08:35:23;5.00;93.00
45008;DHT22;30743;52.008;5.644;2024-01-11T08:37:49;5.10;93.00
45008;DHT22;30743;52.008;5.644;2024-01-11T08:40:15;5.20;92.80
45008;DHT22;30743;52.008;5.644;2024-01-11T08:42:41;5.40;92.70
45008;DHT22;30743;52.008;5.644;2024-01-11T08:45:08;5.50;92.70
45008;DHT22;30743;52.008;5.644;2024-01-11T08:47:34;5.60;92.70
45008;DHT22;30743;52.008;5.644;2024-01-11T08:50:00;5.70;92.60
45008;DHT22;30743;52.008;5.644;2024-01-11T08:52:26;5.80;92.60
45008;DHT22;30743;52.008;5.644;2024-01-11T08:54:52;5.80;92.60
45008;DHT22;30743;52.008;5.644;2024-01-11T08:57:17;6.00;92.60
45008;DHT22;30743;52.008;5.644;2024-01-11T08:59:43;6.00;92.70
45008;DHT22;30743;52.008;5.644;2024-01-11T09:02:09;6.00;92.00
45008;DHT22;30743;52.008;5.644;2024-01-11T09:04:36;6.10;92.20
45008;DHT22;30743;52.008;5.644;2024-01-11T09:07:02;5.90;92.40
45008;DHT22;30743;52.008;5.644;2024-01-11T09:09:27;6.00;92.20
45008;DHT22;30743;52.008;5.644;2024-01-11T09:11:53;6.10;92.10
45008;DHT22;30743;52.008;5.644;2024-01-11T09:14:18;6.00;92.40
45008;DHT22;30743;52.008;5.644;2024-01-11T09:16:44;6.10;92.30
45008;DHT22;30743;52.008;5.644;2024-01-11T09:19:14;6.00;92.40
45008;DHT22;30743;52.008;5.644;2024-01-11T09:21:39;6.20;92.40
45008;DHT22;30743;52.008;5.644;2024-01-11T09:24:06;6.50;92.20
45008;DHT22;30743;52.008;5.644;2024-01-11T09:26:32;8.60;92.50
45008;DHT22;30743;52.008;5.644;2024-01-11T09:28:57;8.10;91.40
45008;DHT22;30743;52.008;5.644;2024-01-11T09:31:23;8.30;90.70
45008;DHT22;30743;52.008;5.644;2024-01-11T09:33:48;8.70;90.10
45008;DHT22;30743;52.008;5.644;2024-01-11T09:36:15;9.00;89.90
45008;DHT22;30743;52.008;5.644;2024-01-11T09:38:41;9.70;88.70
45008;DHT22;30743;52.008;5.644;2024-01-11T09:41:08;10.30;88.40
45008;DHT22;30743;52.008;5.644;2024-01-11T09:43:35;11.10;86.30
45008;DHT22;30743;52.008;5.644;2024-01-11T09:46:05;11.40;85.20
45008;DHT22;30743;52.008;5.644;2024-01-11T09:48:33;12.00;85.10
45008;DHT22;30743;52.008;5.644;2024-01-11T09:51:04;13.70;84.80
45008;DHT22;30743;52.008;5.644;2024-01-11T09:53:33;12.50;84.00
45008;DHT22;30743;52.008;5.644;2024-01-11T09:56:00;12.90;82.00
45008;DHT22;30743;52.008;5.644;2024-01-11T09:58:26;12.60;82.90
45008;DHT22;30743;52.008;5.644;2024-01-11T10:00:56;12.80;82.90
45008;DHT22;30743;52.008;5.644;2024-01-11T10:03:25;12.60;83.40
45008;DHT22;30743;52.008;5.644;2024-01-11T10:05:55;13.10;84.60
45008;DHT22;30743;52.008;5.644;2024-01-11T10:08:22;12.70;83.50
45008;DHT22;30743;52.008;5.644;2024-01-11T10:10:48;13.50;83.90
45008;DHT22;30743;52.008;5.644;2024-01-11T10:13:14;14.00;82.50
45008;DHT22;30743;52.008;5.644;2024-01-11T10:15:42;14.30;81.30
45008;DHT22;30743;52.008;5.644;2024-01-11T10:18:07;14.50;81.60
45008;DHT22;30743;52.008;5.644;2024-01-11T10:20:33;14.80;82.10
45008;DHT22;30743;52.008;5.644;2024-01-11T10:23:01;15.40;81.30
45008;DHT22;30743;52.008;5.644;2024-01-11T10:25:27;15.90;79.60
45008;DHT22;30743;52.008;5.644;2024-01-11T10:27:54;17.30;79.90
45008;DHT22;30743;52.008;5.644;2024-01-11T10:30:20;16.10;80.00
45008;DHT22;30743;52.008;5.644;2024-01-11T10:32:48;16.00;80.90
45008;DHT22;30743;52.008;5.644;2024-01-11T10:35:14;15.10;82.90
45008;DHT22;30743;52.008;5.644;2024-01-11T10:37:43;14.80;84.00
45008;DHT22;30743;52.008;5.644;2024-01-11T10:40:09;14.50;85.70
45008;DHT22;30743;52.008;5.644;2024-01-11T10:42:41;13.30;87.70
45008;DHT22;30743;52.008;5.644;2024-01-11T10:45:14;12.80;89.50
45008;DHT22;30743;52.008;5.644;2024-01-11T10:47:56;12.00;90.60
45008;DHT22;30743;52.008;5.644;2024-01-11T10:50:23;10.90;91.60
45008;DHT22;30743;52.008;5.644;2024-01-11T10:55:50;8.40;95.30
45008;DHT22;30743;52.008;5.644;2024-01-11T10:58:16;7.50;97.40
45008;DHT22;30743;52.008;5.644;2024-01-11T11:00:43;7.20;98.40
45008;DHT22;30743;52.008;5.644;2024-01-11T11:03:11;6.90;99.30
45008;DHT22;30743;52.008;5.644;2024-01-11T11:05:38;7.40;99.90
45008;DHT22;30743;52.008;5.644;2024-01-11T11:08:04;6.60;99.90
45008;DHT22;30743;52.008;5.644;2024-01-11T11:10:34;6.40;99.90
45008;DHT22;30743;52.008;5.644;2024-01-11T11:13:00;6.40;99.90
45008;DHT22;30743;52.008;5.644;2024-01-11T11:15:27;8.00;99.90
45008;DHT22;30743;52.008;5.644;2024-01-11T11:17:53;6.10;99.90
45008;DHT22;30743;52.008;5.644;2024-01-11T11:20:19;6.00;99.90
45008;DHT22;30743;52.008;5.644;2024-01-11T11:22:48;5.70;99.90
45008;DHT22;30743;52.008;5.644;2024-01-11T11:25:30;5.60;99.90
45008;DHT22;30743;52.008;5.644;2024-01-11T11:27:55;5.90;99.90
45008;DHT22;30743;52.008;5.644;2024-01-11T11:30:21;5.80;99.90
45008;DHT22;30743;52.008;5.644;2024-01-11T11:32:47;5.80;99.90
45008;DHT22;30743;52.008;5.644;2024-01-11T11:35:13;5.80;99.90
45008;DHT22;30743;52.008;5.644;2024-01-11T11:37:39;5.80;99.90
45008;DHT22;30743;52.008;5.644;2024-01-11T11:40:06;6.10;99.90
45008;DHT22;30743;52.008;5.644;2024-01-11T11:42:34;6.10;99.90
45008;DHT22;30743;52.008;5.644;2024-01-11T11:45:00;6.40;99.90
45008;DHT22;30743;52.008;5.644;2024-01-11T11:47:35;6.80;99.90
45008;DHT22;30743;52.008;5.644;2024-01-11T11:50:04;7.10;99.90
45008;DHT22;30743;52.008;5.644;2024-01-11T11:52:33;7.40;99.90
45008;DHT22;30743;52.008;5.644;2024-01-11T11:54:59;7.60;99.90
45008;DHT22;30743;52.008;5.644;2024-01-11T11:57:27;7.80;99.90
45008;DHT22;30743;52.008;5.644;2024-01-11T11:59:58;8.00;99.90
45008;DHT22;30743;52.008;5.644;2024-01-11T12:02:27;8.20;99.90
45008;DHT22;30743;52.008;5.644;2024-01-11T12:04:53;8.40;99.90
45008;DHT22;30743;52.008;5.644;2024-01-11T12:07:22;8.60;99.90
45008;DHT22;30743;52.008;5.644;2024-01-11T12:09:49;9.70;99.90
45008;DHT22;30743;52.008;5.644;2024-01-11T12:12:16;9.70;99.90
45008;DHT22;30743;52.008;5.644;2024-01-11T12:14:42;9.00;99.90
45008;DHT22;30743;52.008;5.644;2024-01-11T12:17:08;9.90;99.90
45008;DHT22;30743;52.008;5.644;2024-01-11T12:19:34;9.20;99.90
45008;DHT22;30743;52.008;5.644;2024-01-11T12:22:00;9.30;99.90
45008;DHT22;30743;52.008;5.644;2024-01-11T12:24:26;9.50;99.90
45008;DHT22;30743;52.008;5.644;2024-01-11T12:26:52;9.50;99.90
45008;DHT22;30743;52.008;5.644;2024-01-11T12:29:19;9.60;99.90
45008;DHT22;30743;52.008;5.644;2024-01-11T12:31:45;10.30;99.90
45008;DHT22;30743;52.008;5.644;2024-01-11T12:34:14;9.70;99.90
45008;DHT22;30743;52.008;5.644;2024-01-11T12:36:40;9.80;99.90
45008;DHT22;30743;52.008;5.644;2024-01-11T12:39:06;9.80;99.90
45008;DHT22;30743;52.008;5.644;2024-01-11T12:41:32;9.90;99.90
45008;DHT22;30743;52.008;5.644;2024-01-11T12:43:58;9.90;99.90
45008;DHT22;30743;52.008;5.644;2024-01-11T12:46:24;10.00;99.90
45008;DHT22;30743;52.008;5.644;2024-01-11T12:48:50;10.20;99.90
45008;DHT22;30743;52.008;5.644;2024-01-11T12:51:17;10.10;99.90
45008;DHT22;30743;52.008;5.644;2024-01-11T12:53:45;10.10;99.90
45008;DHT22;30743;52.008;5.644;2024-01-11T12:56:14;10.10;99.90
45008;DHT22;30743;52.008;5.644;2024-01-11T12:58:40;11.40;99.90
45008;DHT22;30743;52.008;5.644;2024-01-11T13:01:07;10.20;99.90
45008;DHT22;30743;52.008;5.644;2024-01-11T13:03:34;10.20;99.90
45008;DHT22;30743;52.008;5.644;2024-01-11T13:05:59;10.20;99.90
45008;DHT22;30743;52.008;5.644;2024-01-11T13:08:25;10.40;99.90
45008;DHT22;30743;52.008;5.644;2024-01-11T13:10:52;11.60;99.90
45008;DHT22;30743;52.008;5.644;2024-01-11T13:13:18;10.40;99.90
45008;DHT22;30743;52.008;5.644;2024-01-11T13:15:44;10.40;99.90
45008;DHT22;30743;52.008;5.644;2024-01-11T13:18:10;10.40;99.90
45008;DHT22;30743;52.008;5.644;2024-01-11T13:20:36;10.50;99.90
45008;DHT22;30743;52.008;5.644;2024-01-11T13:23:15;10.50;99.90
45008;DHT22;30743;52.008;5.644;2024-01-11T13:25:42;10.50;99.90
45008;DHT22;30743;52.008;5.644;2024-01-11T13:28:08;10.60;99.90
45008;DHT22;30743;52.008;5.644;2024-01-11T13:30:33;10.60;99.90
45008;DHT22;30743;52.008;5.644;2024-01-11T13:32:59;10.60;99.90
45008;DHT22;30743;52.008;5.644;2024-01-11T13:35:25;10.50;99.90
45008;DHT22;30743;52.008;5.644;2024-01-11T13:37:50;10.60;99.90
45008;DHT22;30743;52.008;5.644;2024-01-11T13:40:16;11.60;99.90
45008;DHT22;30743;52.008;5.644;2024-01-11T13:42:42;11.10;99.90
45008;DHT22;30743;52.008;5.644;2024-01-11T13:45:09;10.60;99.90
45008;DHT22;30743;52.008;5.644;2024-01-11T13:47:35;10.60;99.90
45008;DHT22;30743;52.008;5.644;2024-01-11T13:50:01;10.60;99.90
45008;DHT22;30743;52.008;5.644;2024-01-11T13:52:26;10.70;99.90
45008;DHT22;30743;52.008;5.644;2024-01-11T13:54:52;10.70;99.90
45008;DHT22;30743;52.008;5.644;2024-01-11T13:57:17;10.60;99.90
45008;DHT22;30743;52.008;5.644;2024-01-11T13:59:43;10.70;99.90
45008;DHT22;30743;52.008;5.644;2024-01-11T14:02:09;10.70;99.90
45008;DHT22;30743;52.008;5.644;2024-01-11T14:04:34;10.70;99.90
45008;DHT22;30743;52.008;5.644;2024-01-11T14:07:00;12.10;99.90
45008;DHT22;30743;52.008;5.644;2024-01-11T14:09:27;10.70;99.90
45008;DHT22;30743;52.008;5.644;2024-01-11T14:11:53;10.70;99.90
45008;DHT22;30743;52.008;5.644;2024-01-11T14:14:18;10.70;99.90
45008;DHT22;30743;52.008;5.644;2024-01-11T14:16:46;10.80;99.90
45008;DHT22;30743;52.008;5.644;2024-01-11T14:19:11;10.70;99.90
45008;DHT22;30743;52.008;5.644;2024-01-11T14:21:37;10.70;99.90
45008;DHT22;30743;52.008;5.644;2024-01-11T14:24:05;10.70;99.90
45008;DHT22;30743;52.008;5.644;2024-01-11T14:26:31;10.70;99.90
45008;DHT22;30743;52.008;5.644;2024-01-11T14:28:58;10.70;99.90
45008;DHT22;30743;52.008;5.644;2024-01-11T14:31:24;10.70;99.90
45008;DHT22;30743;52.008;5.644;2024-01-11T14:33:49;11.00;99.90
45008;DHT22;30743;52.008;5.644;2024-01-11T14:36:15;10.70;99.90
45008;DHT22;30743;52.008;5.644;2024-01-11T14:38:42;11.70;99.90
45008;DHT22;30743;52.008;5.644;2024-01-11T14:41:08;10.70;99.90
45008;DHT22;30743;52.008;5.644;2024-01-11T14:43:35;10.80;99.90
45008;DHT22;30743;52.008;5.644;2024-01-11T14:46:00;10.60;99.90
45008;DHT22;30743;52.008;5.644;2024-01-11T14:48:26;10.60;99.90
45008;DHT22;30743;52.008;5.644;2024-01-11T14:50:59;10.60;99.90
45008;DHT22;30743;52.008;5.644;2024-01-11T14:53:24;10.60;99.90
45008;DHT22;30743;52.008;5.644;2024-01-11T14:55:50;10.70;99.90
45008;DHT22;30743;52.008;5.644;2024-01-11T14:58:16;11.50;99.90
45008;DHT22;30743;52.008;5.644;2024-01-11T15:00:44;10.60;99.90
45008;DHT22;30743;52.008;5.644;2024-01-11T15:03:10;11.20;99.90
45008;DHT22;30743;52.008;5.644;2024-01-11T15:05:35;11.70;99.90
45008;DHT22;30743;52.008;5.644;2024-01-11T15:08:01;10.60;99.90
45008;DHT22;30743;52.008;5.644;2024-01-11T15:10:27;10.60;99.90
45008;DHT22;30743;52.008;5.644;2024-01-11T15:12:53;10.60;99.90
45008;DHT22;30743;52.008;5.644;2024-01-11T15:15:18;10.60;99.90
45008;DHT22;30743;52.008;5.644;2024-01-11T15:17:44;11.40;99.90
45008;DHT22;30743;52.008;5.644;2024-01-11T15:20:10;11.50;99.90
45008;DHT22;30743;52.008;5.644;2024-01-11T15:22:36;10.60;99.90
45008;DHT22;30743;52.008;5.644;2024-01-11T15:25:02;10.60;99.90
45008;DHT22;30743;52.008;5.644;2024-01-11T15:27:27;10.60;99.90
45008;DHT22;30743;52.008;5.644;2024-01-11T15:29:53;10.70;99.90
45008;DHT22;30743;52.008;5.644;2024-01-11T15:32:19;10.60;99.90
45008;DHT22;30743;52.008;5.644;2024-01-11T15:34:44;10.60;99.90
45008;DHT22;30743;52.008;5.644;2024-01-11T15:37:10;10.60;99.90
45008;DHT22;30743;52.008;5.644;2024-01-11T15:39:36;10.60;99.90
45008;DHT22;30743;52.008;5.644;2024-01-11T15:42:02;10.60;99.90